FMST

Toliara Airport

Madagascar
TAF FMST 210500Z 2106/2206 16006KT 9999 FEW020 BECMG 2109/2112 22015KT BECMG 2118/2121 16010KT
Issued Valid From Valid To
Jun-21 @ 05:00 UTC
(5 hours ago)
Jun-21 @ 06:00 UTC
(4 hours ago)
Jun-22 @ 06:00 UTC
(in 20 hours)
Expired Click to View Jun-21 @ 06:00 to Jun-21 @ 09:00
TAF FMST 210500Z 2106/2206 16006KT 9999 FEW020
Wind Visibility Clouds
160° at 6 knots 10,000+ meters
  • Few at 2,000' AGL
Becoming Jun-21 @ 09:00 to Jun-21 @ 18:00
BECMG 2109/2112 22015KT
Wind Visibility Clouds
220° at 15 knots 10,000+ meters
  • Few at 2,000' AGL
Becoming Jun-21 @ 18:00 to Jun-22 @ 06:00
BECMG 2118/2121 16010KT
Wind Visibility Clouds
160° at 10 knots 10,000+ meters
  • Few at 2,000' AGL
TAF FMST 210500Z 2106/2206 16006KT 9999 FEW020 BECMG 2109/2112 22015KT BECMG 2118/2121 16010KT
Issued Jun-21 @ 05:00 UTC
(5 hours ago)
Valid From Jun-21 @ 06:00 UTC
(4 hours ago)
Valid To Jun-22 @ 06:00 UTC
(in 20 hours)
Jun-21 @ 06:00 - Jun-21 @ 09:00
Wind Visibility
160° at 6 knots 10,000+ meters
Clouds
  • Few at 2,000' AGL
Becoming Jun-21 @ 09:00 - Jun-21 @ 18:00
Wind Visibility
220° at 15 knots 10,000+ meters
Clouds
  • Few at 2,000' AGL
Becoming Jun-21 @ 18:00 - Jun-22 @ 06:00
Wind Visibility
160° at 10 knots 10,000+ meters
Clouds
  • Few at 2,000' AGL